Time,TemperatureF,DewpointF,PressureIn,WindDirection,WindDirectionDegrees,WindSpeedMPH,WindSpeedGustMPH,Humidity,HourlyPrecipIn,Conditions,Clouds,dailyrainin,SolarRadiationWatts/m^2,SoftwareType,DateUTC
2013-05-11 00:01:00,57.7,56.0,29.42,WSW,238,0.0,0.0,94,0.00,,,0.00,0,WeatherCatV1.11B39,2013-05-11 04:01:00,
2013-05-11 00:06:00,57.5,56.1,29.42,WSW,238,0.0,0.0,95,0.00,,,0.00,0,WeatherCatV1.11B39,2013-05-11 04:06:00,
2013-05-11 00:11:00,57.4,56.0,29.42,WSW,238,0.0,0.0,95,0.00,,,0.00,0,WeatherCatV1.11B39,2013-05-11 04:11:00,
2013-05-11 00:16:00,57.2,55.5,29.42,WSW,238,0.0,0.0,94,0.00,,,0.00,0,WeatherCatV1.11B39,2013-05-11 04:16:00,
2013-05-11 00:21:00,57.1,55.7,29.42,WSW,238,0.0,0.0,95,0.00,,,0.00,0,WeatherCatV1.11B39,2013-05-11 04:21:00,
2013-05-11 00:26:00,56.9,55.5,29.42,WSW,238,0.0,0.0,95,0.00,,,0.00,0,WeatherCatV1.11B39,2013-05-11 04:26:00,
2013-05-11 00:31:00,56.8,55.1,29.42,WSW,238,0.0,0.0,94,0.00,,,0.00,0,WeatherCatV1.11B39,2013-05-11 04:31:00,
2013-05-11 00:36:00,56.6,54.9,29.42,WSW,238,0.0,0.0,94,0.00,,,0.00,0,WeatherCatV1.11B39,2013-05-11 04:36:00,
2013-05-11 00:41:00,56.5,55.1,29.41,WSW,238,0.0,0.0,95,0.00,,,0.00,0,WeatherCatV1.11B39,2013-05-11 04:41:00,
2013-05-11 00:46:00,56.4,55.0,29.41,WSW,238,0.0,0.0,95,0.00,,,0.00,0,WeatherCatV1.11B39,2013-05-11 04:46:00,
2013-05-11 00:51:00,56.3,54.9,29.41,WSW,238,0.0,0.0,95,0.00,,,0.00,0,WeatherCatV1.11B39,2013-05-11 04:51:00,
2013-05-11 00:56:00,56.2,54.8,29.41,WSW,238,0.0,0.0,95,0.00,,,0.00,0,WeatherCatV1.11B39,2013-05-11 04:56:00,
2013-05-11 01:01:00,56.1,54.7,29.41,WSW,238,0.0,0.0,95,0.00,,,0.00,0,WeatherCatV1.11B39,2013-05-11 05:01:00,
2013-05-11 01:06:00,56.0,54.6,29.41,WSW,238,0.0,0.0,95,0.00,,,0.00,0,WeatherCatV1.11B39,2013-05-11 05:06:00,
2013-05-11 01:11:00,55.9,54.5,29.41,WSW,238,0.0,0.0,95,0.00,,,0.00,0,WeatherCatV1.11B39,2013-05-11 05:11:00,
2013-05-11 01:16:00,55.8,54.4,29.41,WSW,238,0.0,0.0,95,0.00,,,0.00,0,WeatherCatV1.11B39,2013-05-11 05:16:00,
2013-05-11 01:21:00,55.8,54.4,29.41,WSW,238,0.0,0.0,95,0.00,,,0.00,0,WeatherCatV1.11B39,2013-05-11 05:21:00,
2013-05-11 01:26:00,55.7,54.6,29.40,WSW,238,0.0,0.0,96,0.00,,,0.00,0,WeatherCatV1.11B39,2013-05-11 05:26:00,
2013-05-11 01:31:00,55.7,54.6,29.40,WSW,238,0.0,0.0,96,0.00,,,0.00,0,WeatherCatV1.11B39,2013-05-11 05:31:00,
2013-05-11 01:36:00,55.6,54.5,29.40,WSW,238,0.0,0.0,96,0.00,,,0.00,0,WeatherCatV1.11B39,2013-05-11 05:36:00,
2013-05-11 01:41:00,55.6,54.5,29.40,WSW,238,0.0,0.0,96,0.00,,,0.00,0,WeatherCatV1.11B39,2013-05-11 05:41:00,
2013-05-11 01:46:00,55.5,54.4,29.40,WSW,238,0.0,0.0,96,0.00,,,0.00,0,WeatherCatV1.11B39,2013-05-11 05:46:00,
2013-05-11 01:51:00,55.4,54.3,29.40,WSW,238,0.0,0.0,96,0.00,,,0.00,0,WeatherCatV1.11B39,2013-05-11 05:51:00,
2013-05-11 01:56:00,55.4,54.3,29.40,WSW,238,0.0,0.0,96,0.00,,,0.00,0,WeatherCatV1.11B39,2013-05-11 05:56:00,
2013-05-11 02:01:00,55.4,54.3,29.40,WSW,238,0.0,0.0,96,0.00,,,0.00,0,WeatherCatV1.11B39,2013-05-11 06:01:00,
2013-05-11 02:06:00,55.3,54.2,29.39,WSW,238,0.0,1.0,96,0.00,,,0.00,0,WeatherCatV1.11B39,2013-05-11 06:06:00,
2013-05-11 02:11:00,55.3,54.2,29.39,WSW,238,0.0,0.0,96,0.00,,,0.00,0,WeatherCatV1.11B39,2013-05-11 06:11:00,
2013-05-11 02:16:00,55.3,54.2,29.39,WSW,238,0.0,0.0,96,0.00,,,0.00,0,WeatherCatV1.11B39,2013-05-11 06:16:00,
2013-05-11 02:21:00,55.3,54.5,29.39,WSW,238,0.0,0.0,97,0.00,,,0.00,0,WeatherCatV1.11B39,2013-05-11 06:21:00,
2013-05-11 02:26:00,55.3,54.5,29.39,WSW,238,0.0,0.0,97,0.00,,,0.00,0,WeatherCatV1.11B39,2013-05-11 06:26:00,
2013-05-11 02:31:00,55.3,54.5,29.38,WSW,238,0.0,0.0,97,0.00,,,0.00,0,WeatherCatV1.11B39,2013-05-11 06:31:00,
2013-05-11 02:36:00,55.3,54.5,29.38,WSW,238,0.0,0.0,97,0.00,,,0.00,0,WeatherCatV1.11B39,2013-05-11 06:36:00,
2013-05-11 02:41:00,55.3,54.5,29.38,WSW,238,0.0,0.0,97,0.00,,,0.00,0,WeatherCatV1.11B39,2013-05-11 06:41:00,
2013-05-11 02:46:00,55.2,54.4,29.38,WSW,238,0.0,0.0,97,0.00,,,0.00,0,WeatherCatV1.11B39,2013-05-11 06:46:00,
2013-05-11 02:51:00,55.3,54.5,29.38,WSW,238,0.0,0.0,97,0.00,,,0.00,0,WeatherCatV1.11B39,2013-05-11 06:51:00,
2013-05-11 02:56:00,55.3,54.5,29.37,WSW,238,0.0,0.0,97,0.00,,,0.00,0,WeatherCatV1.11B39,2013-05-11 06:56:00,
2013-05-11 03:01:00,55.3,54.5,29.37,WSW,238,0.0,0.0,97,0.00,,,0.00,0,WeatherCatV1.11B39,2013-05-11 07:01:00,
2013-05-11 03:06:00,55.3,54.5,29.37,WSW,238,0.0,0.0,97,0.00,,,0.00,0,WeatherCatV1.11B39,2013-05-11 07:06:00,
2013-05-11 03:11:00,55.4,54.6,29.37,WSW,238,0.0,0.0,97,0.00,,,0.00,0,WeatherCatV1.11B39,2013-05-11 07:11:00,
2013-05-11 03:16:00,55.4,54.6,29.36,WSW,238,0.0,0.0,97,0.00,,,0.00,0,WeatherCatV1.11B39,2013-05-11 07:16:00,
2013-05-11 03:21:00,55.4,54.6,29.37,WSW,238,0.0,0.0,97,0.00,,,0.00,0,WeatherCatV1.11B39,2013-05-11 07:21:00,
2013-05-11 03:26:00,55.4,54.6,29.36,WSW,238,0.0,0.0,97,0.00,,,0.00,0,WeatherCatV1.11B39,2013-05-11 07:26:00,
2013-05-11 03:31:00,55.4,54.6,29.36,WSW,238,0.0,0.0,97,0.00,,,0.00,0,WeatherCatV1.11B39,2013-05-11 07:31:00,
2013-05-11 03:36:00,55.4,54.6,29.36,WSW,238,0.0,0.0,97,0.00,,,0.00,0,WeatherCatV1.11B39,2013-05-11 07:36:00,
2013-05-11 03:41:00,55.4,54.6,29.36,WSW,238,0.0,0.0,97,0.00,,,0.00,0,WeatherCatV1.11B39,2013-05-11 07:41:00,
2013-05-11 03:46:00,55.4,54.6,29.36,WSW,238,0.0,0.0,97,0.00,,,0.00,0,WeatherCatV1.11B39,2013-05-11 07:46:00,
2013-05-11 03:51:00,55.3,54.5,29.36,WSW,238,0.0,0.0,97,0.00,,,0.00,0,WeatherCatV1.11B39,2013-05-11 07:51:00,
2013-05-11 03:56:00,55.4,54.6,29.36,WSW,238,0.0,0.0,97,0.00,,,0.00,0,WeatherCatV1.11B39,2013-05-11 07:56:00,
2013-05-11 04:01:00,55.3,54.5,29.35,WSW,238,0.0,0.0,97,0.00,,,0.00,0,WeatherCatV1.11B39,2013-05-11 08:01:00,
2013-05-11 04:06:00,55.3,54.5,29.35,WSW,238,0.0,0.0,97,0.00,,,0.00,0,WeatherCatV1.11B39,2013-05-11 08:06:00,
2013-05-11 04:11:00,55.3,54.5,29.35,WSW,238,0.0,0.0,97,0.00,,,0.00,0,WeatherCatV1.11B39,2013-05-11 08:11:00,
2013-05-11 04:16:00,55.2,54.4,29.35,WSW,238,0.0,0.0,97,0.00,,,0.00,0,WeatherCatV1.11B39,2013-05-11 08:16:00,
2013-05-11 04:21:00,55.2,54.4,29.34,WSW,238,0.0,0.0,97,0.00,,,0.00,0,WeatherCatV1.11B39,2013-05-11 08:21:00,
2013-05-11 04:26:00,55.1,54.3,29.34,WSW,238,0.0,0.0,97,0.00,,,0.00,0,WeatherCatV1.11B39,2013-05-11 08:26:00,
2013-05-11 04:31:00,55.1,54.3,29.34,WSW,238,0.0,0.0,97,0.00,,,0.00,0,WeatherCatV1.11B39,2013-05-11 08:31:00,
2013-05-11 04:36:00,55.1,54.3,29.34,WSW,238,0.0,0.0,97,0.00,,,0.00,0,WeatherCatV1.11B39,2013-05-11 08:36:00,
2013-05-11 04:41:00,55.1,54.3,29.34,WSW,238,0.0,0.0,97,0.00,,,0.00,0,WeatherCatV1.11B39,2013-05-11 08:41:00,
2013-05-11 04:46:00,55.0,54.2,29.34,WSW,238,0.0,0.0,97,0.00,,,0.00,0,WeatherCatV1.11B39,2013-05-11 08:46:00,
2013-05-11 04:51:00,54.9,53.8,29.34,WSW,238,0.0,1.0,96,0.00,,,0.00,0,WeatherCatV1.11B39,2013-05-11 08:51:00,
2013-05-11 04:56:00,54.9,53.8,29.34,WSW,238,0.0,0.0,96,0.00,,,0.00,0,WeatherCatV1.11B39,2013-05-11 08:56:00,
2013-05-11 05:01:00,54.9,53.8,29.34,WSW,238,0.0,0.0,96,0.00,,,0.00,0,WeatherCatV1.11B39,2013-05-11 09:01:00,
2013-05-11 05:06:00,54.8,53.7,29.34,WSW,238,0.0,0.0,96,0.00,,,0.00,0,WeatherCatV1.11B39,2013-05-11 09:06:00,
2013-05-11 05:11:00,54.8,53.7,29.34,WSW,238,0.0,0.0,96,0.00,,,0.00,0,WeatherCatV1.11B39,2013-05-11 09:11:00,
2013-05-11 05:16:00,54.8,53.7,29.34,WSW,238,0.0,0.0,96,0.00,,,0.00,0,WeatherCatV1.11B39,2013-05-11 09:16:00,
2013-05-11 05:21:00,54.8,53.7,29.34,WSW,238,0.0,0.0,96,0.00,,,0.00,0,WeatherCatV1.11B39,2013-05-11 09:21:00,
2013-05-11 05:26:00,54.8,53.7,29.34,WSW,238,0.0,0.0,96,0.00,,,0.00,0,WeatherCatV1.11B39,2013-05-11 09:26:00,
2013-05-11 05:31:00,54.7,53.6,29.34,WSW,238,0.0,0.0,96,0.00,,,0.00,0,WeatherCatV1.11B39,2013-05-11 09:31:00,
2013-05-11 05:36:00,54.7,53.6,29.34,WSW,238,0.0,0.0,96,0.00,,,0.00,0,WeatherCatV1.11B39,2013-05-11 09:36:00,
2013-05-11 05:41:00,54.7,53.6,29.34,WSW,238,0.0,0.0,96,0.00,,,0.00,0,WeatherCatV1.11B39,2013-05-11 09:41:00,
2013-05-11 05:46:00,54.6,53.5,29.34,WSW,238,0.0,1.0,96,0.00,,,0.00,0,WeatherCatV1.11B39,2013-05-11 09:46:00,
2013-05-11 05:51:00,54.6,53.5,29.34,WSW,238,0.0,0.0,96,0.00,,,0.00,0,WeatherCatV1.11B39,2013-05-11 09:51:00,
2013-05-11 05:56:00,54.6,53.5,29.34,WSW,238,0.0,0.0,96,0.00,,,0.00,0,WeatherCatV1.11B39,2013-05-11 09:56:00,
2013-05-11 06:01:00,54.6,53.5,29.33,WSW,238,0.0,0.0,96,0.00,,,0.00,0,WeatherCatV1.11B39,2013-05-11 10:01:00,
2013-05-11 06:06:00,54.5,53.4,29.33,WSW,238,0.0,0.0,96,0.00,,,0.00,5,WeatherCatV1.11B39,2013-05-11 10:06:00,
2013-05-11 06:11:00,54.5,53.4,29.33,WSW,238,0.0,0.0,96,0.00,,,0.00,5,WeatherCatV1.11B39,2013-05-11 10:11:00,
2013-05-11 06:16:00,54.4,53.3,29.33,WSW,238,0.0,0.0,96,0.00,,,0.00,5,WeatherCatV1.11B39,2013-05-11 10:16:00,
2013-05-11 06:21:00,54.4,53.3,29.32,WSW,238,0.0,0.0,96,0.00,,,0.00,5,WeatherCatV1.11B39,2013-05-11 10:21:00,
2013-05-11 06:26:00,54.4,53.0,29.32,WSW,238,0.0,0.0,95,0.00,,,0.00,5,WeatherCatV1.11B39,2013-05-11 10:26:00,
2013-05-11 06:31:00,54.3,52.9,29.32,WSW,238,1.0,1.0,95,0.00,,,0.00,5,WeatherCatV1.11B39,2013-05-11 10:31:00,
2013-05-11 06:36:00,54.2,52.8,29.32,WSW,238,0.0,0.0,95,0.00,,,0.00,7,WeatherCatV1.11B39,2013-05-11 10:36:00,
2013-05-11 06:41:00,54.2,52.8,29.31,WSW,238,0.0,0.0,95,0.00,,,0.00,0,WeatherCatV1.11B39,2013-05-11 10:41:00,
2013-05-11 06:46:00,54.2,52.8,29.32,WSW,238,0.0,0.0,95,0.00,,,0.00,0,WeatherCatV1.11B39,2013-05-11 10:46:00,
2013-05-11 06:51:00,54.1,52.7,29.32,West,277,0.0,0.0,95,0.00,,,0.00,7,WeatherCatV1.11B39,2013-05-11 10:51:00,
2013-05-11 06:56:00,54.1,52.7,29.32,West,277,0.0,0.0,95,0.00,,,0.00,9,WeatherCatV1.11B39,2013-05-11 10:56:00,
2013-05-11 07:01:00,54.0,52.6,29.32,West,277,0.0,0.0,95,0.00,,,0.00,5,WeatherCatV1.11B39,2013-05-11 11:01:00,
2013-05-11 07:06:00,54.0,52.9,29.33,West,277,0.0,0.0,96,0.00,,,0.00,7,WeatherCatV1.11B39,2013-05-11 11:06:00,
2013-05-11 07:11:00,54.0,52.9,29.34,WSW,250,0.0,0.0,96,0.00,,,0.01,0,WeatherCatV1.11B39,2013-05-11 11:11:00,
2013-05-11 07:16:00,54.0,52.9,29.33,WSW,250,0.0,0.0,96,0.00,,,0.01,5,WeatherCatV1.11B39,2013-05-11 11:16:00,
2013-05-11 07:21:00,53.9,52.8,29.34,WSW,250,0.0,0.0,96,0.00,,,0.01,0,WeatherCatV1.11B39,2013-05-11 11:21:00,
2013-05-11 07:26:00,53.9,52.8,29.32,WSW,250,0.0,0.0,96,0.00,,,0.02,16,WeatherCatV1.11B39,2013-05-11 11:26:00,
2013-05-11 07:31:00,53.9,52.8,29.32,WSW,250,0.0,0.0,96,0.18,,,0.03,14,WeatherCatV1.11B39,2013-05-11 11:31:00,
2013-05-11 07:36:00,53.9,53.1,29.31,WSW,250,0.0,0.0,97,0.09,,,0.03,7,WeatherCatV1.11B39,2013-05-11 11:36:00,
2013-05-11 07:41:00,53.9,53.1,29.32,WSW,250,0.0,0.0,97,0.07,,,0.04,9,WeatherCatV1.11B39,2013-05-11 11:41:00,
2013-05-11 07:46:00,53.9,53.1,29.31,WSW,250,0.0,0.0,97,0.08,,,0.05,18,WeatherCatV1.11B39,2013-05-11 11:46:00,
2013-05-11 07:51:00,53.8,53.0,29.31,WSW,250,0.0,0.0,97,0.08,,,0.05,16,WeatherCatV1.11B39,2013-05-11 11:51:00,
2013-05-11 07:56:00,53.8,53.0,29.30,WSW,250,0.0,0.0,97,0.06,,,0.05,19,WeatherCatV1.11B39,2013-05-11 11:56:00,
2013-05-11 08:01:00,53.8,53.0,29.30,WSW,250,0.0,0.0,97,0.05,,,0.06,23,WeatherCatV1.11B39,2013-05-11 12:01:00,
2013-05-11 08:06:00,53.8,53.0,29.30,WSW,250,0.0,0.0,97,0.05,,,0.06,26,WeatherCatV1.11B39,2013-05-11 12:06:00,
2013-05-11 08:11:00,53.8,53.0,29.30,WSW,250,0.0,0.0,97,0.04,,,0.06,32,WeatherCatV1.11B39,2013-05-11 12:11:00,
2013-05-11 08:16:00,53.8,53.0,29.29,WSW,250,0.0,0.0,97,0.04,,,0.07,30,WeatherCatV1.11B39,2013-05-11 12:16:00,
2013-05-11 08:21:00,53.8,53.0,29.30,WSW,250,0.0,0.0,97,0.04,,,0.07,21,WeatherCatV1.11B39,2013-05-11 12:21:00,
2013-05-11 08:26:00,53.8,53.0,29.30,WSW,250,0.0,0.0,97,0.04,,,0.07,18,WeatherCatV1.11B39,2013-05-11 12:26:00,
2013-05-11 08:31:00,53.8,53.0,29.30,WSW,250,0.0,0.0,97,0.00,,,0.07,35,WeatherCatV1.11B39,2013-05-11 12:31:00,
2013-05-11 08:36:00,53.9,53.1,29.29,WSW,250,0.0,0.0,97,0.00,,,0.08,35,WeatherCatV1.11B39,2013-05-11 12:36:00,
2013-05-11 08:41:00,53.9,53.1,29.30,WSW,250,0.0,0.0,97,0.00,,,0.08,23,WeatherCatV1.11B39,2013-05-11 12:41:00,
2013-05-11 08:46:00,54.0,53.2,29.30,WSW,250,0.0,0.0,97,0.00,,,0.08,23,WeatherCatV1.11B39,2013-05-11 12:46:00,
2013-05-11 08:51:00,54.0,53.4,29.29,WSW,250,0.0,0.0,98,0.00,,,0.08,21,WeatherCatV1.11B39,2013-05-11 12:51:00,
2013-05-11 08:56:00,54.0,53.4,29.29,WSW,250,0.0,0.0,98,0.00,,,0.08,28,WeatherCatV1.11B39,2013-05-11 12:56:00,
2013-05-11 09:01:00,54.0,53.4,29.29,WSW,250,0.0,0.0,98,0.00,,,0.09,25,WeatherCatV1.11B39,2013-05-11 13:01:00,
2013-05-11 09:06:00,54.1,53.5,29.29,WSW,250,0.0,0.0,98,0.00,,,0.09,23,WeatherCatV1.11B39,2013-05-11 13:06:00,
2013-05-11 09:11:00,54.1,53.5,29.29,WSW,250,0.0,0.0,98,0.00,,,0.09,26,WeatherCatV1.11B39,2013-05-11 13:11:00,
2013-05-11 09:16:00,54.1,53.5,29.29,WSW,250,0.0,1.0,98,0.00,,,0.09,26,WeatherCatV1.11B39,2013-05-11 13:16:00,
2013-05-11 09:21:00,54.2,53.6,29.29,WSW,250,0.0,0.0,98,0.00,,,0.09,26,WeatherCatV1.11B39,2013-05-11 13:21:00,
2013-05-11 09:26:00,54.2,53.6,29.28,WSW,250,0.0,0.0,98,0.00,,,0.09,21,WeatherCatV1.11B39,2013-05-11 13:26:00,
2013-05-11 09:31:00,54.2,53.6,29.28,WSW,250,0.0,0.0,98,0.00,,,0.09,23,WeatherCatV1.11B39,2013-05-11 13:31:00,
2013-05-11 09:33:00,54.2,53.6,29.28,WSW,250,0.0,0.0,98,0.00,,,0.09,25,WeatherCatV1.11B39,2013-05-11 13:33:00,
2013-05-11 09:38:00,54.2,53.6,29.28,WSW,250,0.0,0.0,98,0.00,,,0.09,28,WeatherCatV1.11B39,2013-05-11 13:38:00,
2013-05-11 09:43:00,54.3,53.7,29.28,WSW,250,0.0,0.0,98,0.00,,,0.09,37,WeatherCatV1.11B39,2013-05-11 13:43:00,
2013-05-11 09:48:00,54.3,53.7,29.28,WSW,250,0.0,0.0,98,0.00,,,0.09,30,WeatherCatV1.11B39,2013-05-11 13:48:00,
2013-05-11 09:53:00,54.4,53.8,29.28,WSW,250,0.0,0.0,98,0.00,,,0.09,28,WeatherCatV1.11B39,2013-05-11 13:53:00,
2013-05-11 09:58:00,54.4,53.8,29.28,WSW,250,0.0,0.0,98,0.00,,,0.09,25,WeatherCatV1.11B39,2013-05-11 13:58:00,
2013-05-11 10:03:00,54.4,53.8,29.28,WSW,250,0.0,0.0,98,0.00,,,0.09,21,WeatherCatV1.11B39,2013-05-11 14:03:00,
2013-05-11 10:08:00,54.5,53.9,29.27,WSW,250,0.0,0.0,98,0.00,,,0.09,26,WeatherCatV1.11B39,2013-05-11 14:08:00,
2013-05-11 10:13:00,54.5,53.9,29.27,WSW,250,0.0,0.0,98,0.00,,,0.09,26,WeatherCatV1.11B39,2013-05-11 14:13:00,
2013-05-11 10:18:00,54.5,53.9,29.27,WSW,250,0.0,0.0,98,0.00,,,0.09,25,WeatherCatV1.11B39,2013-05-11 14:18:00,
2013-05-11 10:23:00,54.6,54.0,29.28,WSW,250,0.0,0.0,98,0.00,,,0.09,25,WeatherCatV1.11B39,2013-05-11 14:23:00,
2013-05-11 10:28:00,54.6,54.0,29.28,WSW,250,0.0,0.0,98,0.00,,,0.09,28,WeatherCatV1.11B39,2013-05-11 14:28:00,
2013-05-11 10:33:00,54.6,54.0,29.27,WSW,250,0.0,0.0,98,0.00,,,0.09,28,WeatherCatV1.11B39,2013-05-11 14:33:00,
2013-05-11 10:38:00,54.7,54.1,29.27,WSW,250,0.0,0.0,98,0.00,,,0.09,35,WeatherCatV1.11B39,2013-05-11 14:38:00,
2013-05-11 10:43:00,54.7,54.1,29.28,WSW,250,0.0,0.0,98,0.00,,,0.09,21,WeatherCatV1.11B39,2013-05-11 14:43:00,
2013-05-11 10:48:00,54.8,54.2,29.27,WSW,250,0.0,0.0,98,0.00,,,0.09,19,WeatherCatV1.11B39,2013-05-11 14:48:00,
2013-05-11 10:53:00,54.8,54.2,29.27,WSW,250,0.0,0.0,98,0.00,,,0.09,26,WeatherCatV1.11B39,2013-05-11 14:53:00,
2013-05-11 10:58:00,54.8,54.2,29.27,WSW,250,0.0,0.0,98,0.00,,,0.09,25,WeatherCatV1.11B39,2013-05-11 14:58:00,
2013-05-11 11:03:00,54.9,54.3,29.27,WSW,250,0.0,0.0,98,0.00,,,0.09,30,WeatherCatV1.11B39,2013-05-11 15:03:00,
2013-05-11 11:08:00,54.9,54.3,29.27,WSW,250,0.0,0.0,98,0.00,,,0.09,32,WeatherCatV1.11B39,2013-05-11 15:08:00,
2013-05-11 11:13:00,54.9,54.3,29.27,WSW,250,0.0,0.0,98,0.00,,,0.09,35,WeatherCatV1.11B39,2013-05-11 15:13:00,
2013-05-11 11:18:00,55.0,54.4,29.27,WSW,250,0.0,0.0,98,0.00,,,0.09,21,WeatherCatV1.11B39,2013-05-11 15:18:00,
2013-05-11 11:23:00,55.0,54.4,29.26,WSW,250,0.0,0.0,98,0.00,,,0.09,39,WeatherCatV1.11B39,2013-05-11 15:23:00,
2013-05-11 11:28:00,55.0,54.4,29.26,WSW,250,0.0,0.0,98,0.00,,,0.09,44,WeatherCatV1.11B39,2013-05-11 15:28:00,
2013-05-11 11:33:00,55.0,54.4,29.26,WSW,250,0.0,0.0,98,0.00,,,0.09,63,WeatherCatV1.11B39,2013-05-11 15:33:00,
2013-05-11 11:38:00,55.1,54.5,29.26,WSW,250,0.0,0.0,98,0.00,,,0.09,44,WeatherCatV1.11B39,2013-05-11 15:38:00,
2013-05-11 11:43:00,55.2,54.6,29.26,WSW,250,0.0,0.0,98,0.00,,,0.09,26,WeatherCatV1.11B39,2013-05-11 15:43:00,
2013-05-11 11:48:00,55.3,54.7,29.26,WSW,250,0.0,0.0,98,0.00,,,0.09,33,WeatherCatV1.11B39,2013-05-11 15:48:00,
2013-05-11 11:53:00,55.3,54.7,29.26,WSW,250,0.0,0.0,98,0.00,,,0.09,35,WeatherCatV1.11B39,2013-05-11 15:53:00,
2013-05-11 11:58:00,55.4,54.8,29.26,WSW,250,0.0,0.0,98,0.00,,,0.09,54,WeatherCatV1.11B39,2013-05-11 15:58:00,
2013-05-11 12:03:00,55.4,54.8,29.26,WSW,250,0.0,0.0,98,0.00,,,0.09,33,WeatherCatV1.11B39,2013-05-11 16:03:00,
2013-05-11 12:08:00,55.4,54.8,29.25,WSW,250,0.0,0.0,98,0.00,,,0.09,46,WeatherCatV1.11B39,2013-05-11 16:08:00,
2013-05-11 12:13:00,55.5,54.9,29.25,WSW,250,0.0,0.0,98,0.00,,,0.09,26,WeatherCatV1.11B39,2013-05-11 16:13:00,
2013-05-11 12:18:00,55.5,54.9,29.25,WSW,250,0.0,0.0,98,0.00,,,0.09,32,WeatherCatV1.11B39,2013-05-11 16:18:00,
2013-05-11 12:23:00,55.6,55.0,29.25,WSW,250,0.0,0.0,98,0.00,,,0.09,51,WeatherCatV1.11B39,2013-05-11 16:23:00,
2013-05-11 12:28:00,55.7,55.1,29.25,WSW,250,0.0,0.0,98,0.00,,,0.09,53,WeatherCatV1.11B39,2013-05-11 16:28:00,
2013-05-11 12:33:00,55.9,55.3,29.25,WSW,250,0.0,0.0,98,0.00,,,0.09,53,WeatherCatV1.11B39,2013-05-11 16:33:00,
2013-05-11 12:38:00,56.0,55.4,29.24,WSW,250,0.0,0.0,98,0.00,,,0.09,69,WeatherCatV1.11B39,2013-05-11 16:38:00,
2013-05-11 12:43:00,56.1,55.5,29.25,WSW,250,0.0,0.0,98,0.00,,,0.09,70,WeatherCatV1.11B39,2013-05-11 16:43:00,
2013-05-11 12:48:00,56.2,55.6,29.25,West,263,0.0,1.0,98,0.00,,,0.09,46,WeatherCatV1.11B39,2013-05-11 16:48:00,
2013-05-11 12:53:00,56.4,55.8,29.24,West,263,0.0,0.0,98,0.00,,,0.09,23,WeatherCatV1.11B39,2013-05-11 16:53:00,
2013-05-11 12:58:00,56.5,55.9,29.25,West,263,0.0,0.0,98,0.00,,,0.09,23,WeatherCatV1.11B39,2013-05-11 16:58:00,
2013-05-11 13:03:00,56.5,55.9,29.24,West,263,0.0,0.0,98,0.00,,,0.09,53,WeatherCatV1.11B39,2013-05-11 17:03:00,
2013-05-11 13:08:00,56.5,55.9,29.24,West,263,0.0,0.0,98,0.00,,,0.09,54,WeatherCatV1.11B39,2013-05-11 17:08:00,
2013-05-11 13:13:00,56.6,56.0,29.25,West,263,0.0,0.0,98,0.00,,,0.09,33,WeatherCatV1.11B39,2013-05-11 17:13:00,
2013-05-11 13:18:00,56.7,56.1,29.24,West,263,0.0,0.0,98,0.00,,,0.09,39,WeatherCatV1.11B39,2013-05-11 17:18:00,
2013-05-11 13:23:00,56.7,56.1,29.24,West,263,0.0,0.0,98,0.00,,,0.09,33,WeatherCatV1.11B39,2013-05-11 17:23:00,
2013-05-11 13:28:00,56.8,56.2,29.23,West,263,0.0,0.0,98,0.00,,,0.09,28,WeatherCatV1.11B39,2013-05-11 17:28:00,
2013-05-11 13:33:00,56.8,56.2,29.24,West,263,0.0,0.0,98,0.00,,,0.09,26,WeatherCatV1.11B39,2013-05-11 17:33:00,
2013-05-11 13:38:00,56.8,56.0,29.23,West,263,0.0,0.0,97,0.00,,,0.09,32,WeatherCatV1.11B39,2013-05-11 17:38:00,
2013-05-11 13:44:00,56.9,56.1,29.23,West,263,0.0,0.0,97,0.00,,,0.09,26,WeatherCatV1.11B39,2013-05-11 17:44:00,
2013-05-11 13:49:00,56.9,56.1,29.23,West,263,0.0,0.0,97,0.00,,,0.09,25,WeatherCatV1.11B39,2013-05-11 17:49:00,
2013-05-11 13:54:00,56.9,56.1,29.23,West,263,0.0,0.0,97,0.00,,,0.09,23,WeatherCatV1.11B39,2013-05-11 17:54:00,
2013-05-11 13:59:00,57.0,56.2,29.23,West,263,0.0,0.0,97,0.00,,,0.09,25,WeatherCatV1.11B39,2013-05-11 17:59:00,
2013-05-11 14:04:00,57.0,56.4,29.23,WNW,288,0.0,0.0,98,0.00,,,0.09,33,WeatherCatV1.11B39,2013-05-11 18:04:00,
2013-05-11 14:09:00,57.0,56.4,29.23,WSW,254,0.0,1.0,98,0.00,,,0.09,23,WeatherCatV1.11B39,2013-05-11 18:09:00,
2013-05-11 14:14:00,57.0,56.4,29.22,West,269,0.0,0.0,98,0.00,,,0.09,32,WeatherCatV1.11B39,2013-05-11 18:14:00,
2013-05-11 14:19:00,57.0,56.4,29.22,West,269,0.0,0.0,98,0.00,,,0.09,33,WeatherCatV1.11B39,2013-05-11 18:19:00,
2013-05-11 14:24:00,57.0,56.4,29.22,West,269,0.0,0.0,98,0.00,,,0.09,28,WeatherCatV1.11B39,2013-05-11 18:24:00,
2013-05-11 14:29:00,57.1,56.5,29.22,West,269,0.0,0.0,98,0.00,,,0.09,26,WeatherCatV1.11B39,2013-05-11 18:29:00,
2013-05-11 14:34:00,57.1,56.5,29.22,West,269,0.0,0.0,98,0.00,,,0.09,23,WeatherCatV1.11B39,2013-05-11 18:34:00,
2013-05-11 14:39:00,57.1,56.5,29.22,West,269,0.0,0.0,98,0.00,,,0.09,37,WeatherCatV1.11B39,2013-05-11 18:39:00,
2013-05-11 14:44:00,57.2,56.6,29.21,West,269,0.0,0.0,98,0.00,,,0.09,33,WeatherCatV1.11B39,2013-05-11 18:44:00,
2013-05-11 14:49:00,57.2,56.6,29.22,West,269,0.0,0.0,98,0.00,,,0.09,30,WeatherCatV1.11B39,2013-05-11 18:49:00,
2013-05-11 14:54:00,57.2,56.6,29.21,West,269,0.0,0.0,98,0.00,,,0.09,23,WeatherCatV1.11B39,2013-05-11 18:54:00,
2013-05-11 14:59:00,57.2,56.6,29.21,West,269,0.0,0.0,98,0.00,,,0.09,28,WeatherCatV1.11B39,2013-05-11 18:59:00,
2013-05-11 15:04:00,57.3,56.7,29.21,West,269,0.0,0.0,98,0.00,,,0.09,35,WeatherCatV1.11B39,2013-05-11 19:04:00,
2013-05-11 15:09:00,57.3,56.7,29.21,West,269,0.0,0.0,98,0.00,,,0.09,23,WeatherCatV1.11B39,2013-05-11 19:09:00,
2013-05-11 15:14:00,57.3,56.7,29.21,West,269,0.0,0.0,98,0.00,,,0.09,26,WeatherCatV1.11B39,2013-05-11 19:14:00,
2013-05-11 15:19:00,57.4,56.8,29.20,West,269,0.0,0.0,98,0.00,,,0.10,23,WeatherCatV1.11B39,2013-05-11 19:19:00,
2013-05-11 15:24:00,57.4,56.8,29.20,West,269,0.0,0.0,98,0.00,,,0.10,28,WeatherCatV1.11B39,2013-05-11 19:24:00,
2013-05-11 15:29:00,57.5,56.9,29.20,West,269,0.0,0.0,98,0.00,,,0.10,53,WeatherCatV1.11B39,2013-05-11 19:29:00,
2013-05-11 15:34:00,57.5,56.9,29.20,West,269,0.0,0.0,98,0.00,,,0.10,53,WeatherCatV1.11B39,2013-05-11 19:34:00,
2013-05-11 15:39:00,57.6,57.0,29.19,West,269,0.0,0.0,98,0.00,,,0.10,60,WeatherCatV1.11B39,2013-05-11 19:39:00,
2013-05-11 15:44:00,57.7,57.1,29.20,West,269,0.0,0.0,98,0.00,,,0.11,70,WeatherCatV1.11B39,2013-05-11 19:44:00,
2013-05-11 15:49:00,57.8,57.2,29.20,West,269,0.0,0.0,98,0.00,,,0.11,42,WeatherCatV1.11B39,2013-05-11 19:49:00,
2013-05-11 15:54:00,57.9,57.3,29.20,West,269,0.0,0.0,98,0.00,,,0.11,60,WeatherCatV1.11B39,2013-05-11 19:54:00,
2013-05-11 15:59:00,58.0,57.4,29.19,West,269,0.0,0.0,98,0.00,,,0.11,62,WeatherCatV1.11B39,2013-05-11 19:59:00,
2013-05-11 16:04:00,58.2,57.9,29.19,West,269,0.0,0.0,99,0.00,,,0.11,39,WeatherCatV1.11B39,2013-05-11 20:04:00,
2013-05-11 16:09:00,58.3,57.7,29.20,West,269,0.0,0.0,98,0.00,,,0.11,39,WeatherCatV1.11B39,2013-05-11 20:09:00,
2013-05-11 16:14:00,58.4,57.8,29.19,West,269,0.0,0.0,98,0.00,,,0.11,37,WeatherCatV1.11B39,2013-05-11 20:14:00,
2013-05-11 16:19:00,58.6,58.3,29.19,West,269,0.0,0.0,99,0.00,,,0.11,35,WeatherCatV1.11B39,2013-05-11 20:19:00,
2013-05-11 16:24:00,58.8,58.5,29.18,West,269,0.0,0.0,99,0.00,,,0.11,84,WeatherCatV1.11B39,2013-05-11 20:24:00,
2013-05-11 16:29:00,59.0,58.7,29.18,West,269,0.0,0.0,99,0.00,,,0.11,63,WeatherCatV1.11B39,2013-05-11 20:29:00,
2013-05-11 16:34:00,59.0,58.7,29.18,West,269,0.0,0.0,99,0.00,,,0.11,83,WeatherCatV1.11B39,2013-05-11 20:34:00,
2013-05-11 16:39:00,59.0,58.7,29.18,West,269,0.0,0.0,99,0.00,,,0.11,60,WeatherCatV1.11B39,2013-05-11 20:39:00,
2013-05-11 16:44:00,59.3,59.0,29.18,West,269,0.0,0.0,99,0.00,,,0.12,53,WeatherCatV1.11B39,2013-05-11 20:44:00,
2013-05-11 16:49:00,59.5,59.2,29.18,West,269,0.0,0.0,99,0.00,,,0.12,32,WeatherCatV1.11B39,2013-05-11 20:49:00,
2013-05-11 16:54:00,59.8,59.5,29.18,West,269,0.0,0.0,99,0.00,,,0.12,28,WeatherCatV1.11B39,2013-05-11 20:54:00,
2013-05-11 16:59:00,60.0,59.7,29.18,West,269,0.0,0.0,99,0.00,,,0.12,35,WeatherCatV1.11B39,2013-05-11 20:59:00,
2013-05-11 17:04:00,60.2,59.9,29.18,West,269,0.0,0.0,99,0.00,,,0.12,26,WeatherCatV1.11B39,2013-05-11 21:04:00,
2013-05-11 17:09:00,60.4,60.1,29.18,West,269,0.0,0.0,99,0.00,,,0.12,25,WeatherCatV1.11B39,2013-05-11 21:09:00,
2013-05-11 17:14:00,60.5,60.2,29.18,West,269,0.0,0.0,99,0.00,,,0.12,16,WeatherCatV1.11B39,2013-05-11 21:14:00,
2013-05-11 17:19:00,60.7,60.4,29.18,West,269,0.0,0.0,99,0.00,,,0.12,11,WeatherCatV1.11B39,2013-05-11 21:19:00,
2013-05-11 17:24:00,60.7,60.4,29.18,West,269,0.0,0.0,99,0.00,,,0.13,7,WeatherCatV1.11B39,2013-05-11 21:24:00,
2013-05-11 17:29:00,60.8,60.5,29.17,West,269,0.0,0.0,99,0.47,,,0.21,0,WeatherCatV1.11B39,2013-05-11 21:29:00,
2013-05-11 17:34:00,60.8,60.5,29.17,West,269,0.0,0.0,99,0.15,,,0.23,7,WeatherCatV1.11B39,2013-05-11 21:34:00,
2013-05-11 17:39:00,60.9,60.6,29.17,West,269,0.0,0.0,99,0.10,,,0.23,14,WeatherCatV1.11B39,2013-05-11 21:39:00,
2013-05-11 17:44:00,60.9,60.6,29.17,West,269,0.0,0.0,99,0.06,,,0.23,12,WeatherCatV1.11B39,2013-05-11 21:44:00,
2013-05-11 17:49:00,60.9,60.6,29.17,West,269,0.0,0.0,99,0.05,,,0.24,12,WeatherCatV1.11B39,2013-05-11 21:49:00,
2013-05-11 17:54:00,60.9,60.6,29.17,West,269,0.0,0.0,99,0.05,,,0.24,14,WeatherCatV1.11B39,2013-05-11 21:54:00,
2013-05-11 17:59:00,60.9,60.6,29.17,West,269,0.0,0.0,99,0.05,,,0.25,9,WeatherCatV1.11B39,2013-05-11 21:59:00,
2013-05-11 18:04:00,60.8,60.5,29.17,West,269,0.0,0.0,99,0.05,,,0.25,7,WeatherCatV1.11B39,2013-05-11 22:04:00,
2013-05-11 18:09:00,60.8,60.5,29.17,West,269,0.0,0.0,99,0.09,,,0.26,9,WeatherCatV1.11B39,2013-05-11 22:09:00,
2013-05-11 18:14:00,60.8,60.5,29.17,West,269,0.0,0.0,99,0.14,,,0.28,7,WeatherCatV1.11B39,2013-05-11 22:14:00,
2013-05-11 18:19:00,60.8,60.5,29.17,West,269,0.0,0.0,99,0.11,,,0.28,0,WeatherCatV1.11B39,2013-05-11 22:19:00,
2013-05-11 18:24:00,60.8,60.5,29.17,West,269,0.0,0.0,99,0.09,,,0.29,0,WeatherCatV1.11B39,2013-05-11 22:24:00,
2013-05-11 18:29:00,60.8,60.5,29.17,West,269,0.0,0.0,99,0.66,,,0.34,0,WeatherCatV1.11B39,2013-05-11 22:29:00,
2013-05-11 18:34:00,60.9,60.6,29.17,West,269,0.0,0.0,99,0.18,,,0.36,0,WeatherCatV1.11B39,2013-05-11 22:34:00,
2013-05-11 18:39:00,60.8,60.5,29.17,West,269,0.0,0.0,99,0.12,,,0.37,0,WeatherCatV1.11B39,2013-05-11 22:39:00,
2013-05-11 18:44:00,60.9,60.6,29.17,West,269,0.0,1.0,99,0.63,,,0.41,0,WeatherCatV1.11B39,2013-05-11 22:44:00,
2013-05-11 18:49:00,60.9,60.6,29.18,West,269,0.0,0.0,99,0.23,,,0.44,0,WeatherCatV1.11B39,2013-05-11 22:49:00,
2013-05-11 18:54:00,60.9,60.6,29.17,West,269,0.0,1.0,99,0.19,,,0.45,0,WeatherCatV1.11B39,2013-05-11 22:54:00,
2013-05-11 18:59:00,60.8,60.5,29.18,West,269,0.0,0.0,99,0.15,,,0.46,0,WeatherCatV1.11B39,2013-05-11 22:59:00,
2013-05-11 19:04:00,60.8,60.5,29.18,West,269,0.0,0.0,99,0.13,,,0.47,0,WeatherCatV1.11B39,2013-05-11 23:04:00,
2013-05-11 19:09:00,60.7,60.4,29.18,West,269,0.0,0.0,99,0.39,,,0.51,0,WeatherCatV1.11B39,2013-05-11 23:09:00,
2013-05-11 19:14:00,60.7,60.4,29.18,West,269,0.0,0.0,99,0.51,,,0.61,0,WeatherCatV1.11B39,2013-05-11 23:14:00,
2013-05-11 19:19:00,60.7,60.4,29.18,West,269,0.0,0.0,99,0.18,,,0.62,0,WeatherCatV1.11B39,2013-05-11 23:19:00,
2013-05-11 19:24:00,60.7,60.4,29.18,West,269,0.0,0.0,99,0.12,,,0.63,0,WeatherCatV1.11B39,2013-05-11 23:24:00,
2013-05-11 19:29:00,60.7,60.4,29.18,West,269,0.0,0.0,99,0.06,,,0.63,0,WeatherCatV1.11B39,2013-05-11 23:29:00,
2013-05-11 19:34:00,60.7,60.4,29.18,West,269,0.0,0.0,99,0.05,,,0.64,0,WeatherCatV1.11B39,2013-05-11 23:34:00,
2013-05-11 19:39:00,60.7,60.4,29.18,West,269,0.0,0.0,99,0.05,,,0.64,0,WeatherCatV1.11B39,2013-05-11 23:39:00,
2013-05-11 19:44:00,60.7,60.4,29.18,SSE,155,0.0,1.0,99,0.05,,,0.64,0,WeatherCatV1.11B39,2013-05-11 23:44:00,
2013-05-11 19:49:00,60.8,60.5,29.18,SSE,155,0.0,0.0,99,0.00,,,0.64,0,WeatherCatV1.11B39,2013-05-11 23:49:00,
2013-05-11 19:54:00,60.8,60.5,29.17,SSE,155,0.0,1.0,99,0.00,,,0.64,0,WeatherCatV1.11B39,2013-05-11 23:54:00,
2013-05-11 19:59:00,60.8,60.5,29.17,SSE,155,0.0,0.0,99,0.00,,,0.65,0,WeatherCatV1.11B39,2013-05-11 23:59:00,
2013-05-11 20:04:00,60.9,60.6,29.18,SSE,155,0.0,0.0,99,0.00,,,0.65,0,WeatherCatV1.11B39,2013-05-12 00:04:00,
2013-05-11 20:09:00,60.8,60.5,29.18,SSE,155,0.0,0.0,99,0.00,,,0.65,0,WeatherCatV1.11B39,2013-05-12 00:09:00,
2013-05-11 20:14:00,60.8,60.5,29.18,SSE,155,0.0,0.0,99,0.00,,,0.65,0,WeatherCatV1.11B39,2013-05-12 00:14:00,
2013-05-11 20:19:00,60.8,60.5,29.18,SSE,155,0.0,0.0,99,0.04,,,0.66,0,WeatherCatV1.11B39,2013-05-12 00:19:00,
2013-05-11 20:24:00,60.7,60.4,29.19,SSE,155,0.0,0.0,99,0.04,,,0.66,0,WeatherCatV1.11B39,2013-05-12 00:24:00,
2013-05-11 20:29:00,60.7,60.4,29.19,SSE,156,0.0,0.0,99,0.26,,,0.68,0,WeatherCatV1.11B39,2013-05-12 00:29:00,
2013-05-11 20:34:00,60.7,60.4,29.19,SSE,156,0.0,0.0,99,0.42,,,0.73,0,WeatherCatV1.11B39,2013-05-12 00:34:00,
2013-05-11 20:39:00,60.7,60.4,29.19,SSE,156,0.0,0.0,99,0.77,,,0.77,0,WeatherCatV1.11B39,2013-05-12 00:39:00,
2013-05-11 20:44:00,60.7,60.4,29.18,South,174,0.0,3.0,99,0.61,,,0.85,0,WeatherCatV1.11B39,2013-05-12 00:44:00,
2013-05-11 20:49:00,60.8,60.5,29.19,South,174,0.0,0.0,99,0.17,,,0.87,0,WeatherCatV1.11B39,2013-05-12 00:49:00,
2013-05-11 20:54:00,60.8,60.5,29.19,South,174,0.0,0.0,99,0.12,,,0.88,0,WeatherCatV1.11B39,2013-05-12 00:54:00,
2013-05-11 20:59:00,60.7,60.4,29.20,South,174,0.0,1.0,99,0.07,,,0.88,0,WeatherCatV1.11B39,2013-05-12 00:59:00,
2013-05-11 21:04:00,60.7,60.4,29.20,South,174,0.0,0.0,99,0.04,,,0.88,0,WeatherCatV1.11B39,2013-05-12 01:04:00,
2013-05-11 21:09:00,60.7,60.4,29.20,South,174,0.0,0.0,99,0.19,,,0.91,0,WeatherCatV1.11B39,2013-05-12 01:09:00,
2013-05-11 21:14:00,60.7,60.4,29.19,South,174,0.0,0.0,99,0.11,,,0.91,0,WeatherCatV1.11B39,2013-05-12 01:14:00,
2013-05-11 21:19:00,60.6,60.3,29.19,South,174,0.0,0.0,99,0.06,,,0.91,0,WeatherCatV1.11B39,2013-05-12 01:19:00,
2013-05-11 21:24:00,60.6,60.3,29.19,South,174,0.0,0.0,99,0.04,,,0.91,0,WeatherCatV1.11B39,2013-05-12 01:24:00,
2013-05-11 21:29:00,60.5,60.2,29.19,South,174,0.0,0.0,99,0.00,,,0.91,0,WeatherCatV1.11B39,2013-05-12 01:29:00,
2013-05-11 21:34:00,60.5,60.2,29.18,South,174,0.0,0.0,99,0.00,,,0.92,0,WeatherCatV1.11B39,2013-05-12 01:34:00,
2013-05-11 21:39:00,60.4,60.1,29.19,South,174,0.0,0.0,99,0.00,,,0.92,0,WeatherCatV1.11B39,2013-05-12 01:39:00,
2013-05-11 21:44:00,60.4,60.1,29.19,South,174,0.0,0.0,99,0.00,,,0.92,0,WeatherCatV1.11B39,2013-05-12 01:44:00,
2013-05-11 21:49:00,60.3,60.0,29.19,South,174,0.0,1.0,99,0.00,,,0.92,0,WeatherCatV1.11B39,2013-05-12 01:49:00,
2013-05-11 21:54:00,60.2,59.9,29.19,South,174,0.0,0.0,99,0.00,,,0.92,0,WeatherCatV1.11B39,2013-05-12 01:54:00,
2013-05-11 21:59:00,60.2,59.9,29.18,South,174,0.0,1.0,99,0.00,,,0.92,0,WeatherCatV1.11B39,2013-05-12 01:59:00,
2013-05-11 22:04:00,60.2,59.9,29.18,South,174,0.0,1.0,99,0.00,,,0.92,0,WeatherCatV1.11B39,2013-05-12 02:04:00,
2013-05-11 22:09:00,60.1,59.8,29.19,South,174,0.0,0.0,99,0.00,,,0.92,0,WeatherCatV1.11B39,2013-05-12 02:09:00,
2013-05-11 22:14:00,60.1,59.8,29.19,South,174,0.0,0.0,99,0.00,,,0.92,0,WeatherCatV1.11B39,2013-05-12 02:14:00,
2013-05-11 22:19:00,60.0,59.7,29.19,South,174,0.0,0.0,99,0.00,,,0.92,0,WeatherCatV1.11B39,2013-05-12 02:19:00,
2013-05-11 22:24:00,60.0,59.7,29.19,South,174,0.0,0.0,99,0.00,,,0.92,0,WeatherCatV1.11B39,2013-05-12 02:24:00,
2013-05-11 22:29:00,59.9,59.6,29.19,South,174,0.0,0.0,99,0.00,,,0.92,0,WeatherCatV1.11B39,2013-05-12 02:29:00,
2013-05-11 22:34:00,59.9,59.6,29.19,South,174,0.0,0.0,99,0.00,,,0.92,0,WeatherCatV1.11B39,2013-05-12 02:34:00,
2013-05-11 22:39:00,59.9,59.6,29.19,South,174,0.0,1.0,99,0.00,,,0.92,0,WeatherCatV1.11B39,2013-05-12 02:39:00,
2013-05-11 22:44:00,59.8,59.5,29.19,South,174,0.0,0.0,99,0.00,,,0.92,0,WeatherCatV1.11B39,2013-05-12 02:44:00,
2013-05-11 22:49:00,59.8,59.5,29.19,South,174,0.0,0.0,99,0.00,,,0.92,0,WeatherCatV1.11B39,2013-05-12 02:49:00,
2013-05-11 22:54:00,59.8,59.5,29.19,South,174,0.0,0.0,99,0.00,,,0.92,0,WeatherCatV1.11B39,2013-05-12 02:54:00,
2013-05-11 22:59:00,59.7,59.4,29.19,South,174,0.0,0.0,99,0.00,,,0.92,0,WeatherCatV1.11B39,2013-05-12 02:59:00,
2013-05-11 23:04:00,59.7,59.4,29.19,South,174,0.0,1.0,99,0.00,,,0.93,0,WeatherCatV1.11B39,2013-05-12 03:04:00,
2013-05-11 23:09:00,59.7,59.4,29.18,South,174,0.0,0.0,99,0.00,,,0.93,0,WeatherCatV1.11B39,2013-05-12 03:09:00,
2013-05-11 23:14:00,59.6,59.3,29.18,South,174,0.0,0.0,99,0.00,,,0.93,0,WeatherCatV1.11B39,2013-05-12 03:14:00,
2013-05-11 23:19:00,59.6,59.3,29.18,South,174,0.0,0.0,99,0.00,,,0.93,0,WeatherCatV1.11B39,2013-05-12 03:19:00,
2013-05-11 23:24:00,59.5,59.2,29.18,South,174,0.0,1.0,99,0.00,,,0.93,0,WeatherCatV1.11B39,2013-05-12 03:24:00,
2013-05-11 23:29:00,59.5,59.2,29.18,South,174,0.0,0.0,99,0.00,,,0.93,0,WeatherCatV1.11B39,2013-05-12 03:29:00,
2013-05-11 23:34:00,59.4,59.1,29.19,South,174,0.0,0.0,99,0.00,,,0.93,0,WeatherCatV1.11B39,2013-05-12 03:34:00,
2013-05-11 23:39:00,59.4,59.1,29.19,South,174,0.0,0.0,99,0.00,,,0.93,0,WeatherCatV1.11B39,2013-05-12 03:39:00,
2013-05-11 23:44:00,59.3,59.0,29.19,South,174,0.0,0.0,99,0.00,,,0.93,0,WeatherCatV1.11B39,2013-05-12 03:44:00,
2013-05-11 23:49:00,59.3,59.0,29.20,South,174,0.0,0.0,99,0.00,,,0.93,0,WeatherCatV1.11B39,2013-05-12 03:49:00,
2013-05-11 23:54:00,59.2,58.9,29.20,South,174,0.0,0.0,99,0.00,,,0.93,0,WeatherCatV1.11B39,2013-05-12 03:54:00,
2013-05-11 23:59:00,59.1,58.8,29.19,South,174,0.0,0.0,99,0.00,,,0.93,0,WeatherCatV1.11B39,2013-05-12 03:59:00,